Station info - map view · info · telemetry · weather · raw · status · beacons · messages · bulletins · browse · moving · my account
Callsign, ship name or locator: Clear       
It is possible to search using wildcards (*?) after a prefix. Example: OH*
APRS station OE8KKK-7 - show graphs
Map loading...
Comment: TRIXYEYE-TI135
Mic-E message: Committed
Location: 46°31.97' N 14°19.79' E - locator JN76DM97NV - show map - static map
1.4 miles East bearing 73° from Ferlach, Politischer Bezirk Klagenfurt Land, Carinthia, Austria [?]
2.2 miles Southeast bearing 132° from Maria Rain, Politischer Bezirk Klagenfurt Land, Carinthia, Austria
34.3 miles North bearing 346° from Ljubljana, Ljubljana, Slovenia
64.5 miles Southwest bearing 236° from Graz, Styria, Austria
Last position: 2016-12-10 08:30:02 EST (1h16m ago)
2016-12-10 14:30:02 CET local time at Ferlach, Austria [?]
Altitude: 1575 ft
Course: 120°
Device: Yaesu: VX-8 (ht)
Last path: OE8KKK-7>4VSQ97 via WIDE1-1,WIDE2-1,qAR,OE8KKK-11 (good)
Positions stored: 171224
Packet rate: 28 seconds between packets on average during 1407 seconds.
This station is transmitting packets at a high rate, which can cause congestion in the APRS network.
Other SSIDs: OE8KKK-11
Stations near current position of OE8KKK-7 - show more
callsign distance last heard - EST      callsign distance last heard - EST
OE8KKK-110.6 miles 247°2016-12-10 09:44:06 OE8HXK1.9 miles 265°2016-12-04 12:44:23
oe8kkk-5-i5.5 miles 349°2016-12-09 08:45:37 M30309485.7 miles 41°2016-12-02 08:14:56
OE8LCK5.8 miles 346°2016-11-24 10:50:39 OE8EIK-96.0 miles 338°2016-11-30 13:11:53
OE8DMK-76.1 miles 332°2016-11-12 15:01:10 OE8DMK-106.1 miles 332°2016-11-12 15:47:08
OE8LCK-96.8 miles 9°2016-12-02 10:15:26 LOWK8.1 miles 358°2016-12-10 09:26:08
OE8LCK B9.7 miles 339°2016-12-10 09:29:13 OE8LCK-B9.7 miles 339°2016-12-10 09:29:23
OE8LCK-109.7 miles 339°2016-12-10 09:07:51 OE8LCK-79.7 miles 339°2016-11-20 16:05:22
OE8LCK-89.7 miles 339°2016-11-20 13:18:37 OE8HXK-79.9 miles 344°2016-12-07 15:51:40
OE8XKK10.2 miles 301°2016-12-10 09:40:38 S55UJE-1110.7 miles 247°2016-12-10 09:43:25
OE8DBK-911.4 miles 338°2016-12-10 04:48:31 S53XX-913.5 miles 190°2016-12-10 09:46:42
Stations which heard OE8KKK-7 directly on radio –
callsign pkts first heard - EST last heard longest (tx => rx) longest at - EST
OE6XTR 2 2016-12-10 08:10:26 2016-12-10 08:15:33 JN76DK > JN77VN 105.5 miles 42° 2016-12-10 08:10:26
S56OA-3 5 2016-12-01 07:50:14 2016-12-10 08:18:52 JN76JI > JN75BO 61.5 miles 211° 2016-12-01 07:59:59
OE8XDR-11 38 2016-12-01 01:46:44 2016-12-10 08:26:24 JN76II > JN66UO 52.5 miles 290° 2016-12-01 02:05:26
S57D-6 5 2016-12-01 07:47:36 2016-12-01 08:00:51 JN76HK > JN76GC 22.7 miles 186° 2016-12-01 08:00:51
S52ZO-12 16 2016-12-01 02:13:43 2016-12-10 08:15:29 JN76DL > JN75JX 42.0 miles 145° 2016-12-10 08:06:38
S55YJA-10 15 2016-12-01 02:01:09 2016-12-09 02:44:40 JN76QH > JN76IB 36.4 miles 240° 2016-12-01 02:26:13
S57R-12 1 2016-12-01 08:00:16 2016-12-01 08:00:16 JN76HK > JN76OM 27.7 miles 77° 2016-12-01 08:00:16
OE6XLR-11 3 2016-12-01 01:59:47 2016-12-03 08:31:24 JN76GJ > JN77OI 73.4 miles 24° 2016-12-01 01:59:47
9A2CD-11 19 2016-12-01 02:02:21 2016-12-01 07:32:23 JN76HI > JN75XS 77.9 miles 122° 2016-12-01 02:02:21
9A7KXP-10 3 2016-12-01 02:27:15 2016-12-01 07:31:05 JN76PH > JN85DT 59.7 miles 125° 2016-12-01 07:31:05
S59GCD-12 19 2016-12-01 02:19:19 2016-12-01 07:58:40 JN76HK > JN76OE 30.9 miles 122° 2016-12-01 07:58:40
9A7KXP-11 5 2016-12-01 07:44:51 2016-12-10 08:15:57 JN76DK > JN75MJ 79.6 miles 155° 2016-12-10 08:13:01
S55UJE-11 17 2016-12-01 01:41:16 2016-12-10 08:22:32 JN76GL > JN76BL 18.8 miles 272° 2016-12-01 08:04:31
9A7KXP-1 60 2016-12-01 02:02:34 2016-12-10 08:11:20 JN76DM > JN75XV 88.8 miles 119° 2016-12-03 08:31:26
S56JCH-11 2 2016-12-01 02:16:25 2016-12-01 07:49:15 JN76MI > JN75BS 60.1 miles 229° 2016-12-01 02:16:25
9A7KXP-12 3 2016-12-10 08:14:54 2016-12-10 08:17:36 JN76EK > JN74PX 108.9 miles 156° 2016-12-10 08:14:54
S59ACP-10 2 2016-12-01 07:30:03 2016-12-01 07:32:22 JN76OH > JN75TV 33.3 miles 149° 2016-12-01 07:32:22
S59DGO-5 3 2016-12-01 01:53:20 2016-12-01 07:55:19 JN76FL > JN75FO 61.7 miles 181° 2016-12-01 01:53:20
IR4BA 1 2016-12-10 08:14:20 2016-12-10 08:14:20 JN76EK > JN54NF 220.0 miles 227° 2016-12-10 08:14:20
S53XX-10 1 2016-12-03 05:53:13 2016-12-03 05:53:13 JN76CJ > JN76CF 9.9 miles 178° 2016-12-03 05:53:13
S57AJJ-10 32 2016-12-01 01:58:36 2016-12-10 08:15:56 JN76GJ > JN76CI 16.8 miles 257° 2016-12-01 01:58:36
OE8KKK-11 81 2016-12-01 01:38:46 2016-12-10 08:30:02 JN76CJ > JN76DM 9.3 miles 33° 2016-12-09 02:38:17
S55YZA-11 27 2016-12-01 02:03:24 2016-12-10 08:11:03 JN76CL > JN76NE 45.3 miles 115° 2016-12-03 04:09:54
OE6XBF-11 3 2016-12-01 02:30:59 2016-12-01 07:53:43 JN76IJ > JN76XU 65.3 miles 60° 2016-12-01 07:53:43
S56IUL-11 3 2016-12-01 02:04:05 2016-12-01 08:00:00 JN76JI > JN75CS 47.5 miles 212° 2016-12-01 08:00:00
IQ3UD 1 2016-12-03 05:54:45 2016-12-03 05:54:45 JN76DJ > JN66OB 53.8 miles 244° 2016-12-03 05:54:45
S59EKL-10 18 2016-12-01 01:59:12 2016-12-01 07:56:29 JN76GJ > JN76NI 27.2 miles 95° 2016-12-01 01:59:12
9A1DFG-10 7 2016-12-01 02:03:21 2016-12-01 07:31:05 JN76HI > JN85EL 102.6 miles 126° 2016-12-01 02:03:21
9A7KXP-13 1 2016-12-01 02:06:28 2016-12-01 02:06:28 JN76II > JN85AS 74.4 miles 121° 2016-12-01 02:06:28
S52O-6 11 2016-12-01 02:03:20 2016-12-01 07:46:34 JN76LI > JN76BC 43.4 miles 249° 2016-12-01 02:13:40
OE8XVK-11 5 2016-12-01 01:51:05 2016-12-03 06:02:13 JN76FM > JN66WO 29.1 miles 284° 2016-12-01 01:51:05
OE6XAR-1 9 2016-12-01 01:49:33 2016-12-01 07:59:04 JN76LI > JN77EG 68.8 miles 337° 2016-12-01 02:13:09
S59DTB-10 7 2016-12-01 02:01:18 2016-12-01 07:28:08 JN76HJ > JN86AO 70.9 miles 76° 2016-12-01 02:01:18
S54LD-10 17 2016-12-01 02:16:25 2016-12-01 07:50:57 JN76JI > JN76PG 27.8 miles 103° 2016-12-01 07:50:57
OE8PIT-5 1 2016-12-10 08:17:04 2016-12-10 08:17:04 JN76EK > JN66LP 68.3 miles 283° 2016-12-10 08:17:04
OE6XG-1 4 2016-12-01 02:08:09 2016-12-10 08:10:23 JN76DK > JN77OD 65.5 miles 43° 2016-12-10 08:10:23

Only position packets which were originated by the station are shown here. The range statistics show some extra long hops, because some digipeaters do not correctly add themselves to the digipeater path. Please check the raw packets.
About this site
This page shows real-time information collected from the Automatic Position Reporting System Internet network (APRS-IS). APRS is used by amateur (ham) radio operators to transmit real-time position information, weather data, telemetry and messages over the radio. A vehicle equipped with a GPS receiver, a VHF transmitter or HF transceiver and a small computer device called a tracker transmits it's location, speed and course in a small data packet, which is then received by a nearby iGate receiving site which forwards the packet on the Internet. Systems connected to the Internet can send information on the APRS-IS without a radio transmitter, or collect and display information transmitted anywhere in the world.
FAQ · Blog · Discussion group · Linking to aprs.fi · AIS sites · Service status · Database statistics · Advertising on aprs.fi · Technical details · API · Change log · Planned changes · Credits and thanks · Terms Of Service · iPhone/iPad APRS